createdAt,value
2023-05-14T00:00:04.191Z,12.60
2023-05-14T00:04:09.682Z,12.50
2023-05-14T00:08:15.160Z,12.50
2023-05-14T00:12:20.628Z,12.40
2023-05-14T00:16:26.112Z,12.40
2023-05-14T00:20:31.647Z,12.30
2023-05-14T00:24:37.709Z,12.30
2023-05-14T00:28:43.165Z,12.30
2023-05-14T00:32:49.190Z,12.30
2023-05-14T00:36:54.738Z,12.20
2023-05-14T00:41:00.205Z,12.20
2023-05-14T00:45:07.159Z,12.10
2023-05-14T00:49:12.695Z,12.10
2023-05-14T00:53:21.631Z,12.00
2023-05-14T00:57:27.129Z,12.00
2023-05-14T01:01:32.808Z,12.00
2023-05-14T01:06:18.842Z,11.90
2023-05-14T01:10:53.033Z,11.80
2023-05-14T01:15:11.241Z,11.80
2023-05-14T01:19:42.339Z,11.70
2023-05-14T01:23:47.812Z,11.70
2023-05-14T01:27:59.603Z,11.60
2023-05-14T01:32:08.194Z,11.60
2023-05-14T01:36:13.835Z,11.60
2023-05-14T01:40:19.585Z,11.50
2023-05-14T01:44:25.795Z,11.40
2023-05-14T01:48:31.280Z,11.40
2023-05-14T01:52:36.735Z,11.40
2023-05-14T01:56:42.552Z,11.30
2023-05-14T02:00:48.031Z,11.30
2023-05-14T02:04:53.641Z,11.20
2023-05-14T02:08:59.311Z,11.20
2023-05-14T02:13:04.879Z,11.10
2023-05-14T02:17:10.413Z,11.00
2023-05-14T02:21:15.917Z,11.00
2023-05-14T02:25:21.358Z,10.90
2023-05-14T02:29:27.869Z,10.80
2023-05-14T02:33:33.435Z,10.80
2023-05-14T02:37:38.927Z,10.70
2023-05-14T02:41:44.384Z,10.70
2023-05-14T02:45:49.827Z,10.60
2023-05-14T02:49:55.258Z,10.60
2023-05-14T02:54:00.878Z,10.50
2023-05-14T02:58:06.342Z,10.50
2023-05-14T03:02:11.792Z,10.40
2023-05-14T03:06:17.832Z,10.40
2023-05-14T03:10:23.458Z,10.30
2023-05-14T03:14:29.069Z,10.20
2023-05-14T03:18:36.301Z,10.20
2023-05-14T03:22:41.853Z,10.20
2023-05-14T03:26:47.297Z,10.10
2023-05-14T03:30:52.911Z,10.10
2023-05-14T03:34:58.485Z,10.00
2023-05-14T03:39:04.079Z,10.00
2023-05-14T03:43:09.517Z,9.90
2023-05-14T03:47:14.970Z,9.90
2023-05-14T03:51:20.390Z,9.90
2023-05-14T03:55:25.863Z,9.80
2023-05-14T03:59:31.282Z,9.80
2023-05-14T04:03:36.944Z,9.80
2023-05-14T04:07:42.575Z,9.80
2023-05-14T04:11:48.004Z,9.80
2023-05-14T04:15:53.680Z,9.70
2023-05-14T04:19:59.609Z,9.80
2023-05-14T04:24:05.524Z,9.80
2023-05-14T04:28:10.934Z,9.80
2023-05-14T04:32:16.637Z,9.90
2023-05-14T04:36:22.101Z,9.90
2023-05-14T04:40:27.578Z,9.90
2023-05-14T04:44:34.800Z,10.00
2023-05-14T04:48:40.308Z,10.00
2023-05-14T04:52:45.751Z,10.10
2023-05-14T04:56:51.459Z,10.20
2023-05-14T05:00:56.933Z,10.30
2023-05-14T05:05:04.641Z,10.40
2023-05-14T05:09:10.142Z,10.60
2023-05-14T05:13:17.044Z,10.70
2023-05-14T05:17:22.615Z,10.90
2023-05-14T05:21:28.217Z,11.00
2023-05-14T05:25:33.768Z,11.10
2023-05-14T05:29:39.216Z,11.30
2023-05-14T05:33:44.955Z,11.40
2023-05-14T05:37:50.522Z,11.60
2023-05-14T05:41:55.966Z,11.80
2023-05-14T05:46:01.646Z,12.10
2023-05-14T05:50:08.058Z,12.30
2023-05-14T05:54:13.520Z,12.50
2023-05-14T05:58:19.737Z,12.70
2023-05-14T06:02:26.221Z,13.00
2023-05-14T06:06:32.863Z,13.20
2023-05-14T06:10:38.453Z,13.40
2023-05-14T06:14:43.908Z,13.70
2023-05-14T06:18:49.494Z,13.90
2023-05-14T06:22:55.063Z,14.10
2023-05-14T06:27:00.576Z,14.40
2023-05-14T06:31:06.025Z,14.60
2023-05-14T06:35:11.509Z,14.90
2023-05-14T06:39:16.965Z,15.10
2023-05-14T06:43:22.741Z,15.30
2023-05-14T06:47:28.259Z,15.50
2023-05-14T06:51:33.687Z,15.70
2023-05-14T06:55:39.496Z,15.90
2023-05-14T06:59:45.405Z,16.20
2023-05-14T07:03:50.897Z,16.40
2023-05-14T07:07:56.772Z,16.70
2023-05-14T07:12:02.202Z,16.90
2023-05-14T07:16:11.182Z,17.20
2023-05-14T07:20:16.937Z,17.40
2023-05-14T07:24:22.442Z,17.70
2023-05-14T07:28:27.884Z,18.00
2023-05-14T07:32:33.388Z,18.20
2023-05-14T07:36:39.310Z,18.50
2023-05-14T07:40:44.802Z,18.70
2023-05-14T07:44:51.296Z,19.00
2023-05-14T07:48:56.798Z,19.20
2023-05-14T07:53:02.215Z,19.30
2023-05-14T07:57:07.684Z,19.30
2023-05-14T08:01:13.523Z,19.50
2023-05-14T08:05:18.994Z,19.70
2023-05-14T08:09:24.582Z,19.90
2023-05-14T08:13:30.100Z,20.10
2023-05-14T08:17:35.799Z,20.30
2023-05-14T08:21:41.498Z,20.60
2023-05-14T08:25:47.114Z,20.90
2023-05-14T08:29:52.602Z,21.10
2023-05-14T08:33:58.016Z,21.20
2023-05-14T08:38:03.683Z,21.30
2023-05-14T08:42:12.339Z,21.40
2023-05-14T08:46:20.448Z,21.60
2023-05-14T08:50:27.201Z,21.80
2023-05-14T08:54:33.224Z,21.90
2023-05-14T08:58:38.675Z,22.00
2023-05-14T09:02:46.410Z,22.20
2023-05-14T09:06:54.096Z,22.30
2023-05-14T09:10:59.724Z,22.50
2023-05-14T09:15:06.547Z,22.70
2023-05-14T09:19:13.777Z,22.80
2023-05-14T09:23:19.444Z,23.00
2023-05-14T09:27:25.946Z,23.20
2023-05-14T09:31:34.579Z,23.40
2023-05-14T09:35:41.422Z,23.60
2023-05-14T09:39:46.890Z,23.70
2023-05-14T09:43:52.722Z,23.80
2023-05-14T09:48:01.180Z,23.90
2023-05-14T09:52:07.439Z,24.00
2023-05-14T09:56:13.083Z,24.00
2023-05-14T10:00:19.281Z,24.00
2023-05-14T10:04:25.378Z,24.10
2023-05-14T10:08:42.012Z,24.30
2023-05-14T10:12:59.044Z,24.30
2023-05-14T10:17:07.152Z,24.40
2023-05-14T10:21:16.463Z,24.50
2023-05-14T10:25:23.327Z,24.70
2023-05-14T10:29:36.219Z,24.70
2023-05-14T10:33:50.296Z,24.80
2023-05-14T10:37:57.097Z,24.70
2023-05-14T10:42:02.693Z,24.70
2023-05-14T10:46:11.888Z,24.60
2023-05-14T10:50:17.739Z,24.50
2023-05-14T10:54:23.773Z,24.70
2023-05-14T10:58:33.873Z,24.80
2023-05-14T11:02:41.998Z,25.00
2023-05-14T11:06:47.706Z,25.10
2023-05-14T11:10:56.122Z,25.20
2023-05-14T11:15:05.767Z,25.20
2023-05-14T11:19:11.570Z,25.30
2023-05-14T11:23:17.151Z,25.30
2023-05-14T11:27:23.982Z,25.20
2023-05-14T11:31:29.586Z,25.00
2023-05-14T11:35:36.931Z,24.90
2023-05-14T11:39:53.816Z,25.00
2023-05-14T11:43:59.275Z,25.00
2023-05-14T11:48:14.923Z,24.80
2023-05-14T11:52:21.886Z,24.80
2023-05-14T11:56:27.458Z,24.50
2023-05-14T12:00:34.162Z,24.60
2023-05-14T12:04:41.839Z,24.80
2023-05-14T12:08:49.331Z,24.60
2023-05-14T12:12:55.652Z,24.40
2023-05-14T12:17:02.291Z,24.30
2023-05-14T12:21:08.443Z,24.20
2023-05-14T12:25:14.394Z,24.00
2023-05-14T12:29:21.985Z,23.90
2023-05-14T12:33:27.868Z,23.60
2023-05-14T12:37:34.062Z,23.40
2023-05-14T12:41:40.040Z,23.20
2023-05-14T12:45:45.764Z,23.10
2023-05-14T12:49:51.228Z,23.00
2023-05-14T12:53:56.717Z,23.00
2023-05-14T12:58:02.191Z,23.00
2023-05-14T13:02:07.882Z,23.00
2023-05-14T13:06:13.428Z,23.10
2023-05-14T13:10:18.988Z,23.10
2023-05-14T13:14:24.476Z,23.10
2023-05-14T13:18:29.951Z,23.00
2023-05-14T13:22:35.444Z,22.70
2023-05-14T13:26:40.890Z,22.70
2023-05-14T13:31:13.173Z,22.80
2023-05-14T13:35:18.828Z,22.90
2023-05-14T13:39:27.096Z,22.90
2023-05-14T13:43:35.101Z,23.10
2023-05-14T13:47:40.608Z,23.30
2023-05-14T13:51:46.296Z,23.30
2023-05-14T13:55:58.572Z,23.20
2023-05-14T14:00:05.422Z,23.20
2023-05-14T14:04:10.945Z,23.20
2023-05-14T14:08:23.499Z,23.20
2023-05-14T14:12:30.083Z,23.10
2023-05-14T14:16:36.158Z,23.20
2023-05-14T14:20:41.879Z,23.40
2023-05-14T14:24:47.377Z,23.60
2023-05-14T14:28:52.800Z,24.00
2023-05-14T14:33:01.151Z,24.40
2023-05-14T14:37:06.784Z,25.00
2023-05-14T14:41:12.363Z,25.40
2023-05-14T14:45:18.046Z,25.60
2023-05-14T14:49:23.926Z,25.40
2023-05-14T14:53:29.625Z,25.20
2023-05-14T14:57:36.302Z,24.90
2023-05-14T15:01:41.813Z,24.60
2023-05-14T15:05:47.745Z,24.50
2023-05-14T15:09:53.190Z,24.60
2023-05-14T15:13:58.658Z,25.10
2023-05-14T15:18:04.624Z,25.60
2023-05-14T15:22:10.195Z,25.50
2023-05-14T15:26:15.723Z,25.10
2023-05-14T15:30:21.229Z,24.70
2023-05-14T15:34:26.788Z,24.80
2023-05-14T15:38:32.295Z,25.20
2023-05-14T15:42:43.848Z,25.30
2023-05-14T15:46:49.414Z,25.40
2023-05-14T15:50:54.911Z,25.30
2023-05-14T15:55:00.843Z,25.40
2023-05-14T15:59:06.300Z,25.70
2023-05-14T16:03:12.414Z,25.90
2023-05-14T16:07:17.944Z,26.00
2023-05-14T16:11:23.394Z,26.20
2023-05-14T16:15:29.064Z,26.10
2023-05-14T16:19:34.489Z,26.10
2023-05-14T16:23:39.956Z,26.10
2023-05-14T16:27:46.045Z,26.10
2023-05-14T16:31:51.552Z,26.20
2023-05-14T16:35:57.044Z,26.10
2023-05-14T16:40:02.737Z,26.10
2023-05-14T16:44:08.208Z,26.10
2023-05-14T16:48:13.687Z,25.90
2023-05-14T16:52:19.974Z,25.80
2023-05-14T16:56:26.442Z,25.70
2023-05-14T17:00:31.940Z,25.90
2023-05-14T17:04:40.872Z,25.90
2023-05-14T17:08:46.410Z,25.70
2023-05-14T17:12:52.019Z,25.50
2023-05-14T17:16:57.659Z,25.50
2023-05-14T17:21:04.768Z,25.70
2023-05-14T17:25:10.643Z,25.70
2023-05-14T17:29:16.099Z,25.70
2023-05-14T17:33:21.617Z,25.70
2023-05-14T17:37:27.170Z,25.70
2023-05-14T17:41:32.601Z,25.70
2023-05-14T17:45:50.315Z,25.70
2023-05-14T17:49:59.187Z,25.70
2023-05-14T17:54:04.692Z,25.50
2023-05-14T17:58:15.494Z,25.30
2023-05-14T18:02:21.114Z,25.20
2023-05-14T18:06:26.638Z,24.90
2023-05-14T18:10:32.187Z,24.60
2023-05-14T18:14:37.681Z,24.40
2023-05-14T18:18:43.161Z,24.20
2023-05-14T18:22:50.615Z,24.00
2023-05-14T18:26:56.144Z,23.80
2023-05-14T18:31:01.760Z,23.50
2023-05-14T18:35:08.329Z,23.20
2023-05-14T18:39:13.840Z,23.00
2023-05-14T18:43:19.789Z,22.70
2023-05-14T18:47:25.706Z,22.50
2023-05-14T18:51:31.207Z,22.30
2023-05-14T18:55:37.106Z,22.10
2023-05-14T18:59:42.632Z,21.90
2023-05-14T19:03:48.188Z,21.80
2023-05-14T19:07:53.810Z,21.60
2023-05-14T19:11:59.301Z,21.40
2023-05-14T19:16:05.202Z,21.30
2023-05-14T19:20:11.817Z,21.10
2023-05-14T19:24:17.243Z,20.90
2023-05-14T19:28:22.894Z,20.80
2023-05-14T19:32:28.391Z,20.60
2023-05-14T19:36:33.886Z,20.50
2023-05-14T19:40:39.446Z,20.30
2023-05-14T19:44:44.959Z,20.20
2023-05-14T19:48:50.581Z,20.00
2023-05-14T19:52:57.517Z,19.80
2023-05-14T19:57:03.451Z,19.70
2023-05-14T20:01:09.375Z,19.50
2023-05-14T20:05:15.448Z,19.30
2023-05-14T20:09:20.908Z,19.10
2023-05-14T20:13:26.351Z,18.90
2023-05-14T20:17:31.861Z,18.80
2023-05-14T20:21:37.372Z,18.70
2023-05-14T20:25:43.112Z,18.50
2023-05-14T20:29:51.271Z,18.30
2023-05-14T20:33:57.089Z,18.10
2023-05-14T20:38:03.720Z,18.00
2023-05-14T20:42:09.710Z,17.90
2023-05-14T20:46:15.181Z,17.70
2023-05-14T20:50:21.567Z,17.60
2023-05-14T20:54:27.066Z,17.50
2023-05-14T20:58:32.777Z,17.40
2023-05-14T21:02:38.422Z,17.40
2023-05-14T21:06:44.004Z,17.30
2023-05-14T21:10:49.451Z,17.20
2023-05-14T21:14:54.873Z,17.10
2023-05-14T21:19:00.483Z,17.00
2023-05-14T21:23:05.986Z,16.90
2023-05-14T21:27:11.757Z,16.80
2023-05-14T21:31:17.231Z,16.70
2023-05-14T21:35:22.888Z,16.70
2023-05-14T21:39:28.757Z,16.60
2023-05-14T21:43:34.280Z,16.50
2023-05-14T21:47:39.933Z,16.50
2023-05-14T21:51:45.457Z,16.30
2023-05-14T21:55:51.273Z,16.30
2023-05-14T21:59:56.707Z,16.20
2023-05-14T22:04:02.230Z,16.10
2023-05-14T22:08:07.783Z,16.10
2023-05-14T22:12:13.317Z,16.00
2023-05-14T22:16:18.891Z,15.90
2023-05-14T22:20:24.472Z,15.80
2023-05-14T22:24:29.994Z,15.80
2023-05-14T22:28:36.766Z,15.70
2023-05-14T22:32:42.235Z,15.60
2023-05-14T22:36:48.029Z,15.50
2023-05-14T22:40:53.496Z,15.40
2023-05-14T22:44:58.966Z,15.20
2023-05-14T22:49:04.450Z,15.10
2023-05-14T22:53:09.964Z,15.10
2023-05-14T22:57:15.559Z,15.00
2023-05-14T23:01:21.040Z,14.90
2023-05-14T23:05:26.770Z,14.80
2023-05-14T23:09:32.405Z,14.70
2023-05-14T23:13:37.873Z,14.60
2023-05-14T23:17:43.377Z,14.60
2023-05-14T23:21:48.867Z,14.40
2023-05-14T23:25:54.365Z,14.30
2023-05-14T23:29:59.878Z,14.30
2023-05-14T23:34:05.487Z,14.20
2023-05-14T23:38:11.095Z,14.10
2023-05-14T23:42:16.603Z,14.00
2023-05-14T23:46:22.417Z,13.90
2023-05-14T23:50:28.226Z,13.80
2023-05-14T23:54:33.682Z,13.80
2023-05-14T23:58:39.205Z,13.70
